createdAt,value
2023-01-11T00:00:42.390Z,98858.88
2023-01-11T00:03:24.298Z,98867.28
2023-01-11T00:06:04.989Z,98871.28
2023-01-11T00:11:27.572Z,98860.16
2023-01-11T00:14:07.372Z,98866.75
2023-01-11T00:16:37.630Z,98865.94
2023-01-11T00:19:07.418Z,98872.72
2023-01-11T00:21:43.021Z,98861.75
2023-01-11T00:24:26.565Z,98863.66
2023-01-11T00:27:13.809Z,98858.00
2023-01-11T00:32:19.239Z,98856.22
2023-01-11T00:34:58.629Z,98849.75
2023-01-11T00:37:33.921Z,98853.13
2023-01-11T00:40:07.126Z,98844.75
2023-01-11T00:43:01.013Z,98835.56
2023-01-11T00:46:35.215Z,98828.13
2023-01-11T00:49:55.789Z,98831.34
2023-01-11T00:58:46.961Z,98827.03
2023-01-11T01:06:17.971Z,98809.50
2023-01-11T01:12:47.207Z,98812.00
2023-01-11T01:28:47.686Z,98803.53
2023-01-11T01:37:44.343Z,98799.66
2023-01-11T01:42:58.883Z,98796.91
2023-01-11T01:56:30.343Z,98771.91
2023-01-11T01:59:15.705Z,98769.19
2023-01-11T02:02:10.195Z,98766.09
2023-01-11T02:05:04.357Z,98761.09
2023-01-11T02:07:59.642Z,98761.41
2023-01-11T02:13:23.458Z,98760.28
2023-01-11T02:19:06.687Z,98748.84
2023-01-11T02:22:14.970Z,98741.13
2023-01-11T02:25:39.249Z,98740.38
2023-01-11T02:31:58.959Z,98741.72
2023-01-11T02:35:00.883Z,98733.94
2023-01-11T02:38:12.901Z,98734.59
2023-01-11T02:41:23.090Z,98725.88
2023-01-11T02:45:08.446Z,98713.75
2023-01-11T02:48:34.929Z,98711.19
2023-01-11T02:52:03.731Z,98713.94
2023-01-11T02:57:50.310Z,98706.25
2023-01-11T03:00:28.117Z,98707.19
2023-01-11T03:06:33.580Z,98718.88
2023-01-11T03:09:15.183Z,98714.00
2023-01-11T03:12:30.310Z,98701.97
2023-01-11T03:15:48.935Z,98698.84
2023-01-11T03:21:39.208Z,98689.63
2023-01-11T03:24:30.769Z,98690.59
2023-01-11T03:27:06.426Z,98687.34
2023-01-11T03:29:56.149Z,98681.03
2023-01-11T03:32:50.242Z,98685.41
2023-01-11T03:35:30.535Z,98684.50
2023-01-11T03:38:04.247Z,98675.03
2023-01-11T03:40:39.282Z,98678.22
2023-01-11T03:46:02.461Z,98654.19
2023-01-11T03:48:41.251Z,98653.22
2023-01-11T03:51:22.678Z,98646.75
2023-01-11T03:53:57.900Z,98647.38
2023-01-11T03:56:33.035Z,98647.53
2023-01-11T03:59:04.005Z,98641.13
2023-01-11T04:01:37.690Z,98637.06
2023-01-11T04:04:08.560Z,98634.47
2023-01-11T04:06:38.354Z,98627.34
2023-01-11T04:09:38.914Z,98638.94
2023-01-11T04:12:17.347Z,98634.63
2023-01-11T04:15:40.837Z,98633.63
2023-01-11T04:26:31.611Z,98631.28
2023-01-11T04:29:06.773Z,98618.88
2023-01-11T04:31:34.547Z,98625.44
2023-01-11T04:34:16.017Z,98627.56
2023-01-11T04:36:57.813Z,98618.22
2023-01-11T04:42:42.697Z,98620.81
2023-01-11T04:45:21.183Z,98612.34
2023-01-11T04:48:10.268Z,98611.47
2023-01-11T04:53:32.324Z,98615.28
2023-01-11T04:56:14.321Z,98610.47
2023-01-11T05:05:05.378Z,98611.66
2023-01-11T05:07:58.893Z,98614.22
2023-01-11T05:10:33.381Z,98613.72
2023-01-11T05:13:19.484Z,98617.72
2023-01-11T05:16:00.424Z,98610.78
2023-01-11T05:18:44.767Z,98618.72
2023-01-11T05:21:17.498Z,98613.91
2023-01-11T05:24:01.708Z,98608.47
2023-01-11T05:39:15.895Z,98595.44
2023-01-11T05:42:18.083Z,98588.97
2023-01-11T05:45:15.811Z,98582.94
2023-01-11T05:56:15.338Z,98572.59
2023-01-11T05:58:57.237Z,98575.53
2023-01-11T06:01:30.773Z,98568.34
2023-01-11T06:04:13.690Z,98578.84
2023-01-11T06:06:40.621Z,98574.75
2023-01-11T06:09:11.106Z,98573.22
2023-01-11T06:14:30.972Z,98565.75
2023-01-11T06:20:22.189Z,98559.94
2023-01-11T06:31:59.583Z,98565.84
2023-01-11T06:34:33.068Z,98564.66
2023-01-11T06:37:00.911Z,98571.25
2023-01-11T06:39:41.953Z,98562.34
2023-01-11T06:42:15.740Z,98547.09
2023-01-11T06:45:01.873Z,98547.09
2023-01-11T06:47:34.583Z,98547.34
2023-01-11T06:50:10.272Z,98544.59
2023-01-11T06:52:42.479Z,98545.47
2023-01-11T06:57:59.678Z,98539.94
2023-01-11T07:03:32.496Z,98541.06
2023-01-11T07:06:04.690Z,98538.13
2023-01-11T07:08:41.633Z,98541.31
2023-01-11T07:11:20.403Z,98542.13
2023-01-11T07:13:55.062Z,98540.53
2023-01-11T07:19:15.421Z,98543.97
2023-01-11T07:21:47.410Z,98539.41
2023-01-11T07:24:24.657Z,98546.00
2023-01-11T07:27:01.312Z,98547.59
2023-01-11T07:29:38.907Z,98544.50
2023-01-11T07:32:11.624Z,98535.66
2023-01-11T07:34:38.675Z,98538.78
2023-01-11T07:37:29.128Z,98540.31
2023-01-11T07:42:59.163Z,98537.03
2023-01-11T07:45:44.623Z,98539.63
2023-01-11T07:48:33.756Z,98533.13
2023-01-11T07:51:06.739Z,98526.41
2023-01-11T07:53:41.405Z,98523.81
2023-01-11T07:58:52.603Z,98527.84
2023-01-11T08:04:16.840Z,98522.88
2023-01-11T08:06:56.023Z,98526.66
2023-01-11T08:09:32.808Z,98524.66
2023-01-11T08:12:25.003Z,98516.88
2023-01-11T08:15:04.368Z,98520.69
2023-01-11T08:17:36.124Z,98524.19
2023-01-11T08:20:12.255Z,98513.22
2023-01-11T08:22:40.414Z,98512.66
2023-01-11T08:25:11.171Z,98508.09
2023-01-11T08:27:42.430Z,98511.25
2023-01-11T08:30:23.097Z,98505.69
2023-01-11T08:32:51.488Z,98509.50
2023-01-11T08:35:18.424Z,98503.16
2023-01-11T08:40:17.025Z,98506.41
2023-01-11T08:42:51.249Z,98512.03
2023-01-11T08:45:22.930Z,98510.84
2023-01-11T08:47:58.490Z,98506.13
2023-01-11T08:50:36.076Z,98504.22
2023-01-11T08:53:10.907Z,98507.84
2023-01-11T08:58:32.331Z,98508.88
2023-01-11T09:01:12.990Z,98508.91
2023-01-11T09:06:46.833Z,98506.75
2023-01-11T09:12:05.627Z,98509.78
2023-01-11T09:17:25.458Z,98505.06
2023-01-11T09:20:00.006Z,98509.63
2023-01-11T09:22:37.147Z,98503.47
2023-01-11T09:25:19.802Z,98505.31
2023-01-11T09:28:02.685Z,98492.78
2023-01-11T09:30:29.668Z,98487.22
2023-01-11T09:33:08.365Z,98498.22
2023-01-11T09:35:44.708Z,98492.84
2023-01-11T09:38:21.788Z,98488.06
2023-01-11T09:41:00.531Z,98481.09
2023-01-11T09:49:03.486Z,98474.75
2023-01-11T09:51:39.712Z,98470.81
2023-01-11T09:54:10.252Z,98465.84
2023-01-11T09:56:51.001Z,98459.44
2023-01-11T10:00:06.892Z,98462.03
2023-01-11T10:02:59.206Z,98453.66
2023-01-11T10:21:43.235Z,98441.66
2023-01-11T10:24:54.200Z,98433.50
2023-01-11T10:28:17.757Z,98435.88
2023-01-11T10:36:10.097Z,98423.28
2023-01-11T10:38:58.441Z,98423.09
2023-01-11T10:41:52.429Z,98418.94
2023-01-11T10:44:28.751Z,98420.72
2023-01-11T10:46:56.944Z,98419.31
2023-01-11T10:49:35.548Z,98421.28
2023-01-11T10:52:27.417Z,98425.50
2023-01-11T10:54:57.224Z,98427.06
2023-01-11T10:58:02.136Z,98422.91
2023-01-11T11:00:36.435Z,98419.28
2023-01-11T11:03:19.044Z,98423.88
2023-01-11T11:05:54.475Z,98415.28
2023-01-11T11:08:56.332Z,98413.34
2023-01-11T11:11:34.360Z,98415.13
2023-01-11T11:17:05.178Z,98405.34
2023-01-11T11:19:32.941Z,98405.94
2023-01-11T11:22:00.403Z,98413.34
2023-01-11T11:24:35.787Z,98399.97
2023-01-11T11:27:14.402Z,98402.75
2023-01-11T11:29:43.388Z,98395.16
2023-01-11T11:32:20.461Z,98392.78
2023-01-11T11:34:50.233Z,98398.78
2023-01-11T11:37:34.519Z,98390.00
2023-01-11T11:40:01.184Z,98386.38
2023-01-11T11:42:28.122Z,98386.59
2023-01-11T11:45:09.980Z,98376.44
2023-01-11T11:47:37.660Z,98377.25
2023-01-11T11:50:42.307Z,98380.44
2023-01-11T11:53:21.110Z,98380.41
2023-01-11T11:58:19.843Z,98372.41
2023-01-11T12:00:49.527Z,98366.66
2023-01-11T12:05:57.334Z,98357.84
2023-01-11T12:08:25.022Z,98367.25
2023-01-11T12:10:57.523Z,98367.06
2023-01-11T12:13:28.530Z,98359.66
2023-01-11T12:16:03.046Z,98358.06
2023-01-11T12:18:42.381Z,98359.47
2023-01-11T12:21:30.181Z,98360.63
2023-01-11T12:27:19.577Z,98350.25
2023-01-11T12:29:58.204Z,98349.06
2023-01-11T12:32:42.251Z,98347.88
2023-01-11T12:35:40.931Z,98342.47
2023-01-11T12:40:59.878Z,98343.91
2023-01-11T12:43:38.737Z,98342.50
2023-01-11T12:49:18.508Z,98342.50
2023-01-11T12:52:07.336Z,98341.09
2023-01-11T12:54:39.879Z,98341.50
2023-01-11T12:57:19.086Z,98343.69
2023-01-11T13:00:01.067Z,98331.72
2023-01-11T13:02:46.221Z,98328.94
2023-01-11T13:05:18.689Z,98336.94
2023-01-11T13:08:04.715Z,98327.97
2023-01-11T13:11:00.963Z,98333.94
2023-01-11T13:13:45.576Z,98332.72
2023-01-11T13:19:08.736Z,98329.75
2023-01-11T13:21:44.362Z,98331.53
2023-01-11T13:24:15.546Z,98329.13
2023-01-11T13:26:47.255Z,98323.75
2023-01-11T13:29:20.581Z,98323.13
2023-01-11T13:34:23.966Z,98323.13
2023-01-11T13:36:58.656Z,98329.72
2023-01-11T13:39:38.509Z,98326.94
2023-01-11T13:44:55.123Z,98323.72
2023-01-11T13:47:35.220Z,98329.53
2023-01-11T13:50:18.475Z,98329.94
2023-01-11T13:52:50.872Z,98330.53
2023-01-11T13:58:15.832Z,98341.69
2023-01-11T14:00:48.988Z,98338.47
2023-01-11T14:05:53.916Z,98343.66
2023-01-11T14:08:44.029Z,98350.06
2023-01-11T14:11:20.172Z,98355.84
2023-01-11T14:14:13.805Z,98352.06
2023-01-11T14:16:59.069Z,98373.19
2023-01-11T14:22:40.192Z,98376.22
2023-01-11T14:25:27.351Z,98383.78
2023-01-11T14:28:15.565Z,98384.41
2023-01-11T14:31:07.418Z,98379.59
2023-01-11T14:33:47.634Z,98383.00
2023-01-11T14:36:32.888Z,98388.38
2023-01-11T14:42:29.328Z,98393.16
2023-01-11T14:45:16.699Z,98392.56
2023-01-11T14:48:07.996Z,98384.19
2023-01-11T14:50:59.182Z,98387.16
2023-01-11T14:53:30.927Z,98386.78
2023-01-11T14:55:57.331Z,98389.56
2023-01-11T14:58:32.352Z,98393.34
2023-01-11T15:00:58.831Z,98394.94
2023-01-11T15:03:37.255Z,98397.16
2023-01-11T15:06:17.157Z,98405.34
2023-01-11T15:08:50.240Z,98408.16
2023-01-11T15:13:57.888Z,98410.13
2023-01-11T15:16:48.410Z,98414.13
2023-01-11T15:21:55.652Z,98415.34
2023-01-11T15:24:28.485Z,98407.75
2023-01-11T15:26:57.349Z,98418.72
2023-01-11T15:29:29.202Z,98421.09
2023-01-11T15:32:01.763Z,98418.91
2023-01-11T15:34:40.951Z,98426.09
2023-01-11T15:40:09.063Z,98433.91
2023-01-11T15:42:49.652Z,98436.31
2023-01-11T15:46:19.719Z,98434.09
2023-01-11T15:48:48.844Z,98453.66
2023-01-11T15:54:17.788Z,98460.88
2023-01-11T15:56:59.070Z,98461.06
2023-01-11T15:59:58.716Z,98464.44
2023-01-11T16:02:37.034Z,98470.22
2023-01-11T16:05:21.343Z,98471.25
2023-01-11T16:08:07.004Z,98472.44
2023-01-11T16:18:56.700Z,98494.97
2023-01-11T16:21:40.984Z,98500.38
2023-01-11T16:26:42.217Z,98520.75
2023-01-11T16:29:19.432Z,98523.94
2023-01-11T16:32:04.680Z,98520.75
2023-01-11T16:34:40.956Z,98520.75
2023-01-11T16:37:36.292Z,98528.53
2023-01-11T16:40:02.658Z,98532.91
2023-01-11T16:42:34.510Z,98534.31
2023-01-11T16:45:07.931Z,98541.69
2023-01-11T16:47:34.339Z,98538.69
2023-01-11T16:50:22.219Z,98542.69
2023-01-11T16:52:52.774Z,98552.47
2023-01-11T16:55:22.741Z,98549.66
2023-01-11T16:57:53.850Z,98553.25
2023-01-11T17:00:35.541Z,98556.25
2023-01-11T17:06:15.181Z,98557.22
2023-01-11T17:09:10.919Z,98572.63
2023-01-11T17:11:45.275Z,98571.22
2023-01-11T17:14:35.345Z,98584.34
2023-01-11T17:17:04.725Z,98576.56
2023-01-11T17:19:34.718Z,98577.38
2023-01-11T17:25:15.079Z,98578.56
2023-01-11T17:27:49.986Z,98583.34
2023-01-11T17:38:01.329Z,98600.03
2023-01-11T17:40:36.532Z,98606.63
2023-01-11T17:43:38.094Z,98612.78
2023-01-11T17:46:05.393Z,98620.72
2023-01-11T17:48:33.777Z,98620.94
2023-01-11T17:51:02.535Z,98621.13
2023-01-11T17:53:34.277Z,98629.91
2023-01-11T17:56:04.932Z,98628.31
2023-01-11T17:58:35.607Z,98632.66
2023-01-11T18:01:05.276Z,98628.88
2023-01-11T18:03:59.231Z,98634.91
2023-01-11T18:06:42.309Z,98630.94
2023-01-11T18:12:15.674Z,98632.31
2023-01-11T18:14:52.966Z,98639.25
2023-01-11T18:17:36.253Z,98631.09
2023-01-11T18:23:07.777Z,98647.81
2023-01-11T18:25:35.352Z,98648.19
2023-01-11T18:28:25.172Z,98646.78
2023-01-11T18:30:58.273Z,98658.97
2023-01-11T18:36:02.966Z,98656.31
2023-01-11T18:38:36.311Z,98658.91
2023-01-11T18:41:29.716Z,98667.25
2023-01-11T18:43:56.276Z,98661.84
2023-01-11T18:46:23.044Z,98674.97
2023-01-11T18:48:49.589Z,98662.59
2023-01-11T18:54:03.145Z,98682.31
2023-01-11T18:59:00.897Z,98689.13
2023-01-11T19:03:59.090Z,98697.84
2023-01-11T19:08:58.033Z,98705.13
2023-01-11T19:13:57.487Z,98701.38
2023-01-11T19:16:24.360Z,98703.16
2023-01-11T19:18:54.142Z,98702.41
2023-01-11T19:21:20.581Z,98704.00
2023-01-11T19:23:49.460Z,98708.75
2023-01-11T19:26:15.852Z,98719.31
2023-01-11T19:28:42.258Z,98718.09
2023-01-11T19:33:40.298Z,98728.06
2023-01-11T19:36:07.862Z,98731.66
2023-01-11T19:38:34.468Z,98734.25
2023-01-11T19:41:09.444Z,98724.06
2023-01-11T19:43:36.520Z,98724.19
2023-01-11T19:46:03.930Z,98731.34
2023-01-11T19:48:33.037Z,98732.88
2023-01-11T19:51:08.396Z,98748.16
2023-01-11T19:53:35.977Z,98749.53
2023-01-11T19:56:04.775Z,98752.00
2023-01-11T19:58:31.664Z,98756.75
2023-01-11T20:00:58.138Z,98753.94
2023-01-11T20:06:08.036Z,98760.00
2023-01-11T20:08:40.383Z,98764.75
2023-01-11T20:11:15.845Z,98756.84
2023-01-11T20:13:43.099Z,98765.38
2023-01-11T20:16:12.223Z,98760.63
2023-01-11T20:18:39.079Z,98770.38
2023-01-11T20:21:05.706Z,98765.56
2023-01-11T20:23:33.288Z,98775.28
2023-01-11T20:26:00.616Z,98774.66
2023-01-11T20:30:54.696Z,98774.78
2023-01-11T20:33:21.135Z,98770.28
2023-01-11T20:35:48.626Z,98774.88
2023-01-11T20:38:15.119Z,98775.19
2023-01-11T20:43:13.293Z,98796.28
2023-01-11T20:48:11.756Z,98798.50
2023-01-11T20:50:38.258Z,98802.34
2023-01-11T20:53:04.809Z,98811.28
2023-01-11T21:00:34.542Z,98816.09
2023-01-11T21:03:00.988Z,98811.53
2023-01-11T21:05:27.426Z,98807.91
2023-01-11T21:07:53.800Z,98808.97
2023-01-11T21:10:20.186Z,98813.81
2023-01-11T21:15:12.869Z,98819.06
2023-01-11T21:17:39.366Z,98818.81
2023-01-11T21:20:06.205Z,98831.22
2023-01-11T21:25:04.241Z,98835.03
2023-01-11T21:27:30.654Z,98839.69
2023-01-11T21:29:57.123Z,98853.44
2023-01-11T21:34:57.207Z,98858.09
2023-01-11T21:37:24.533Z,98859.38
2023-01-11T21:39:51.688Z,98859.38
2023-01-11T21:42:18.131Z,98863.91
2023-01-11T21:44:44.567Z,98861.25
2023-01-11T21:47:14.449Z,98870.34
2023-01-11T21:49:41.232Z,98866.34
2023-01-11T21:52:07.699Z,98863.75
2023-01-11T21:54:34.271Z,98868.50
2023-01-11T21:57:00.663Z,98854.47
2023-01-11T21:59:27.852Z,98847.47
2023-01-11T22:01:54.283Z,98851.47
2023-01-11T22:04:21.546Z,98854.56
2023-01-11T22:06:54.307Z,98849.75
2023-01-11T22:09:22.641Z,98855.88
2023-01-11T22:11:50.877Z,98854.81
2023-01-11T22:14:17.383Z,98857.94
2023-01-11T22:16:43.893Z,98861.25
2023-01-11T22:19:10.448Z,98859.84
2023-01-11T22:21:37.697Z,98862.78
2023-01-11T22:24:18.707Z,98868.25
2023-01-11T22:26:45.274Z,98868.50
2023-01-11T22:29:11.911Z,98872.34
2023-01-11T22:31:40.206Z,98876.38
2023-01-11T22:34:07.076Z,98873.84
2023-01-11T22:39:00.297Z,98878.78
2023-01-11T22:41:27.050Z,98888.34
2023-01-11T22:43:54.145Z,98893.38
2023-01-11T22:46:23.907Z,98889.13
2023-01-11T22:48:50.619Z,98895.09
2023-01-11T22:51:19.735Z,98889.97
2023-01-11T22:53:48.106Z,98877.31
2023-01-11T22:56:18.601Z,98880.47
2023-01-11T22:58:45.669Z,98880.00
2023-01-11T23:01:17.525Z,98876.69
2023-01-11T23:03:47.365Z,98878.03
2023-01-11T23:06:18.002Z,98879.91
2023-01-11T23:08:44.668Z,98873.31
2023-01-11T23:11:14.604Z,98872.50
2023-01-11T23:13:54.827Z,98867.47
2023-01-11T23:16:24.691Z,98860.19
2023-01-11T23:18:51.160Z,98861.00
2023-01-11T23:21:17.753Z,98857.31
2023-01-11T23:23:44.212Z,98869.13
2023-01-11T23:26:17.769Z,98879.47
2023-01-11T23:28:45.722Z,98886.09
2023-01-11T23:31:16.685Z,98884.19
2023-01-11T23:33:48.510Z,98880.59
2023-01-11T23:36:16.316Z,98885.34
2023-01-11T23:41:35.676Z,98880.72
2023-01-11T23:44:04.727Z,98878.25
2023-01-11T23:46:49.752Z,98884.41
2023-01-11T23:49:16.329Z,98878.50
2023-01-11T23:51:43.036Z,98889.41
2023-01-11T23:54:10.127Z,98875.63
2023-01-11T23:56:36.906Z,98874.91
2023-01-11T23:59:04.343Z,98871.47
